createdAt,value
2022-09-14T00:01:25.196Z,4.20
2022-09-14T00:03:47.297Z,2.90
2022-09-14T00:06:09.740Z,3.40
2022-09-14T00:08:30.832Z,3.23
2022-09-14T00:10:52.139Z,3.07
2022-09-14T00:13:14.904Z,2.70
2022-09-14T00:15:36.831Z,3.23
2022-09-14T00:17:59.328Z,4.53
2022-09-14T00:20:20.657Z,5.97
2022-09-14T00:22:41.978Z,2.90
2022-09-14T00:25:03.254Z,2.93
2022-09-14T00:27:24.435Z,4.50
2022-09-14T00:29:48.459Z,3.30
2022-09-14T00:32:09.924Z,5.03
2022-09-14T00:34:32.701Z,2.97
2022-09-14T00:36:54.248Z,3.00
2022-09-14T00:39:15.740Z,3.00
2022-09-14T00:41:38.727Z,3.30
2022-09-14T00:44:01.603Z,2.83
2022-09-14T00:46:22.747Z,2.97
2022-09-14T00:48:43.716Z,3.10
2022-09-14T00:51:06.626Z,3.03
2022-09-14T00:53:27.936Z,2.70
2022-09-14T00:55:49.259Z,3.43
2022-09-14T00:58:10.319Z,3.93
2022-09-14T01:00:31.800Z,3.03
2022-09-14T01:02:52.874Z,3.47
2022-09-14T01:05:14.645Z,3.70
2022-09-14T01:07:46.148Z,4.60
2022-09-14T01:10:12.151Z,2.83
2022-09-14T01:12:36.481Z,4.40
2022-09-14T01:15:03.929Z,3.03
2022-09-14T01:17:28.729Z,4.23
2022-09-14T01:20:03.701Z,3.70
2022-09-14T01:22:27.085Z,3.10
2022-09-14T01:24:50.477Z,3.10
2022-09-14T01:27:26.165Z,3.50
2022-09-14T01:29:50.123Z,3.70
2022-09-14T01:32:14.650Z,3.13
2022-09-14T01:34:38.453Z,5.67
2022-09-14T01:37:01.839Z,3.30
2022-09-14T01:39:23.451Z,4.83
2022-09-14T01:41:44.971Z,5.73
2022-09-14T01:44:09.425Z,6.47
2022-09-14T01:46:34.573Z,6.50
2022-09-14T01:49:01.176Z,4.93
2022-09-14T01:51:27.056Z,8.30
2022-09-14T01:53:50.606Z,7.57
2022-09-14T01:56:15.869Z,12.93
2022-09-14T01:58:39.482Z,9.53
2022-09-14T02:01:03.358Z,11.60
2022-09-14T02:03:27.215Z,11.77
2022-09-14T02:05:51.361Z,8.13
2022-09-14T02:08:12.808Z,9.20
2022-09-14T02:10:34.824Z,8.33
2022-09-14T02:12:56.592Z,9.10
2022-09-14T02:15:18.062Z,10.27
2022-09-14T02:17:40.600Z,11.97
2022-09-14T02:20:02.944Z,9.33
2022-09-14T02:22:24.750Z,12.17
2022-09-14T02:24:46.212Z,12.33
2022-09-14T02:27:07.655Z,7.60
2022-09-14T02:29:29.017Z,7.80
2022-09-14T02:31:57.667Z,7.60
2022-09-14T02:34:25.295Z,7.60
2022-09-14T02:36:48.669Z,9.57
2022-09-14T02:39:13.512Z,9.17
2022-09-14T02:41:39.769Z,13.60
2022-09-14T02:44:05.738Z,12.27
2022-09-14T02:46:30.471Z,17.50
2022-09-14T02:48:55.241Z,24.00
2022-09-14T02:51:21.856Z,12.50
2022-09-14T02:53:44.625Z,7.50
2022-09-14T02:56:07.856Z,11.23
2022-09-14T02:58:35.048Z,9.60
2022-09-14T03:00:56.551Z,7.87
2022-09-14T03:03:18.905Z,8.70
2022-09-14T03:05:40.146Z,8.67
2022-09-14T03:08:03.974Z,7.97
2022-09-14T03:10:25.353Z,8.37
2022-09-14T03:12:46.707Z,9.97
2022-09-14T03:15:08.366Z,11.00
2022-09-14T03:17:29.604Z,8.10
2022-09-14T03:19:50.920Z,7.70
2022-09-14T03:22:11.716Z,9.10
2022-09-14T03:24:34.621Z,7.30
2022-09-14T03:26:55.867Z,8.40
2022-09-14T03:29:17.331Z,8.80
2022-09-14T03:31:38.561Z,8.83
2022-09-14T03:34:00.679Z,8.57
2022-09-14T03:36:21.844Z,8.70
2022-09-14T03:38:44.124Z,10.47
2022-09-14T03:41:10.271Z,6.90
2022-09-14T03:43:31.400Z,11.73
2022-09-14T03:45:52.699Z,7.17
2022-09-14T03:48:15.413Z,8.47
2022-09-14T03:50:36.521Z,6.57
2022-09-14T03:52:57.876Z,7.30
2022-09-14T03:55:19.661Z,7.90
2022-09-14T03:57:42.365Z,6.87
2022-09-14T04:00:11.785Z,7.33
2022-09-14T04:02:33.000Z,6.83
2022-09-14T04:04:54.100Z,7.63
2022-09-14T04:07:15.354Z,6.83
2022-09-14T04:09:36.383Z,10.20
2022-09-14T04:11:57.632Z,7.73
2022-09-14T04:14:20.287Z,7.40
2022-09-14T04:16:43.122Z,7.50
2022-09-14T04:19:04.565Z,7.10
2022-09-14T04:21:26.517Z,7.27
2022-09-14T04:26:30.061Z,6.30
2022-09-14T04:28:51.378Z,6.27
2022-09-14T04:31:14.708Z,7.00
2022-09-14T04:33:36.488Z,7.40
2022-09-14T04:35:58.936Z,6.90
2022-09-14T04:38:20.388Z,8.53
2022-09-14T04:40:41.892Z,7.40
2022-09-14T04:43:02.972Z,6.87
2022-09-14T04:45:24.492Z,7.23
2022-09-14T04:47:47.127Z,7.50
2022-09-14T04:50:08.927Z,7.17
2022-09-14T04:52:30.157Z,7.97
2022-09-14T04:54:51.340Z,8.07
2022-09-14T04:57:12.605Z,8.17
2022-09-14T04:59:34.464Z,8.97
2022-09-14T05:01:56.744Z,8.10
2022-09-14T05:04:19.480Z,7.80
2022-09-14T05:06:41.313Z,9.50
2022-09-14T05:09:02.967Z,8.70
2022-09-14T05:11:25.532Z,11.90
2022-09-14T05:13:50.055Z,7.23
2022-09-14T05:16:15.555Z,7.73
2022-09-14T05:18:36.766Z,7.43
2022-09-14T05:21:05.087Z,7.73
2022-09-14T05:23:28.610Z,8.50
2022-09-14T05:25:53.505Z,8.27
2022-09-14T05:28:15.101Z,7.70
2022-09-14T05:30:40.308Z,8.10
2022-09-14T05:33:01.475Z,8.70
2022-09-14T05:35:22.732Z,8.67
2022-09-14T05:37:45.536Z,7.50
2022-09-14T05:40:08.598Z,8.30
2022-09-14T05:42:29.584Z,8.27
2022-09-14T05:44:50.927Z,8.27
2022-09-14T05:47:12.169Z,8.17
2022-09-14T05:49:33.344Z,11.13
2022-09-14T05:51:54.560Z,8.73
2022-09-14T05:54:17.070Z,8.20
2022-09-14T05:56:38.333Z,7.50
2022-09-14T05:59:00.263Z,8.13
2022-09-14T06:01:23.343Z,7.70
2022-09-14T06:03:45.481Z,7.40
2022-09-14T06:06:07.939Z,8.03
2022-09-14T06:08:29.163Z,7.93
2022-09-14T06:10:51.905Z,8.70
2022-09-14T06:13:13.263Z,6.50
2022-09-14T06:15:34.793Z,7.23
2022-09-14T06:17:55.788Z,6.20
2022-09-14T06:20:18.929Z,6.63
2022-09-14T06:22:40.336Z,6.27
2022-09-14T06:25:01.718Z,6.37
2022-09-14T06:27:24.392Z,6.50
2022-09-14T06:29:45.788Z,7.07
2022-09-14T06:32:07.381Z,8.23
2022-09-14T06:34:28.979Z,6.93
2022-09-14T06:36:50.318Z,6.57
2022-09-14T06:39:11.625Z,6.93
2022-09-14T06:41:34.319Z,6.40
2022-09-14T06:43:57.118Z,7.23
2022-09-14T06:46:19.919Z,6.20
2022-09-14T06:48:41.830Z,6.47
2022-09-14T06:51:11.940Z,5.63
2022-09-14T06:53:32.954Z,6.10
2022-09-14T06:55:54.282Z,6.50
2022-09-14T06:58:15.585Z,6.83
2022-09-14T07:00:38.225Z,5.87
2022-09-14T07:02:59.394Z,6.33
2022-09-14T07:05:22.279Z,5.90
2022-09-14T07:07:43.670Z,5.80
2022-09-14T07:10:05.409Z,6.43
2022-09-14T07:12:26.671Z,6.87
2022-09-14T07:14:48.169Z,6.20
2022-09-14T07:17:10.895Z,7.73
2022-09-14T07:19:32.196Z,6.53
2022-09-14T07:21:54.632Z,6.03
2022-09-14T07:24:15.931Z,6.23
2022-09-14T07:26:40.436Z,6.20
2022-09-14T07:29:03.176Z,6.70
2022-09-14T07:31:25.509Z,8.17
2022-09-14T07:33:48.585Z,6.33
2022-09-14T07:36:10.471Z,8.17
2022-09-14T07:38:51.132Z,5.90
2022-09-14T07:41:12.684Z,6.63
2022-09-14T07:43:34.808Z,5.77
2022-09-14T07:45:56.066Z,6.73
2022-09-14T07:48:17.035Z,5.53
2022-09-14T07:50:39.535Z,5.73
2022-09-14T07:53:00.804Z,6.13
2022-09-14T07:55:22.036Z,5.17
2022-09-14T07:57:55.560Z,5.33
2022-09-14T08:00:17.575Z,6.00
2022-09-14T08:02:38.901Z,5.53
2022-09-14T08:04:59.953Z,5.03
2022-09-14T08:07:22.437Z,5.20
2022-09-14T08:09:43.756Z,4.43
2022-09-14T08:12:05.497Z,6.17
2022-09-14T08:14:26.527Z,5.00
2022-09-14T08:16:48.009Z,4.37
2022-09-14T08:19:12.513Z,4.60
2022-09-14T08:21:35.825Z,4.60
2022-09-14T08:23:58.768Z,5.80
2022-09-14T08:26:20.665Z,4.97
2022-09-14T08:28:42.268Z,4.67
2022-09-14T08:31:04.428Z,4.40
2022-09-14T08:33:25.684Z,4.33
2022-09-14T08:35:57.820Z,7.00
2022-09-14T08:38:19.652Z,5.10
2022-09-14T08:40:47.426Z,7.83
2022-09-14T08:43:11.035Z,4.93
2022-09-14T08:45:32.426Z,7.57
2022-09-14T08:47:54.272Z,6.77
2022-09-14T08:50:17.613Z,4.17
2022-09-14T08:52:40.534Z,4.20
2022-09-14T08:55:02.121Z,4.40
2022-09-14T08:57:27.617Z,4.47
2022-09-14T08:59:51.460Z,4.50
2022-09-14T09:02:20.280Z,4.20
2022-09-14T09:04:48.140Z,5.70
2022-09-14T09:07:12.991Z,5.60
2022-09-14T09:09:40.475Z,5.27
2022-09-14T09:12:02.013Z,4.97
2022-09-14T09:14:26.900Z,3.77
2022-09-14T09:16:50.354Z,4.07
2022-09-14T09:19:16.285Z,4.33
2022-09-14T09:21:41.157Z,3.80
2022-09-14T09:24:10.077Z,3.77
2022-09-14T09:26:31.989Z,3.90
2022-09-14T09:28:54.424Z,4.00
2022-09-14T09:31:17.446Z,4.53
2022-09-14T09:33:38.748Z,3.57
2022-09-14T09:36:00.433Z,4.67
2022-09-14T09:38:24.891Z,3.87
2022-09-14T09:40:48.081Z,4.30
2022-09-14T09:43:10.336Z,3.70
2022-09-14T09:45:46.870Z,5.67
2022-09-14T09:48:11.605Z,4.13
2022-09-14T09:50:33.059Z,4.50
2022-09-14T09:52:55.397Z,5.57
2022-09-14T09:55:20.164Z,3.70
2022-09-14T09:57:41.561Z,5.80
2022-09-14T10:00:19.028Z,3.30
2022-09-14T10:02:40.377Z,5.47
2022-09-14T10:05:04.597Z,3.43
2022-09-14T10:07:26.317Z,4.73
2022-09-14T10:09:57.480Z,4.37
2022-09-14T10:12:19.504Z,4.37
2022-09-14T10:14:41.850Z,4.97
2022-09-14T10:17:06.698Z,4.77
2022-09-14T10:19:29.506Z,4.20
2022-09-14T10:22:04.987Z,6.07
2022-09-14T10:24:26.311Z,3.67
2022-09-14T10:26:47.658Z,3.50
2022-09-14T10:29:31.600Z,5.47
2022-09-14T10:31:53.317Z,3.50
2022-09-14T10:34:17.521Z,5.63
2022-09-14T10:36:42.138Z,3.33
2022-09-14T10:39:14.249Z,4.93
2022-09-14T10:41:48.151Z,4.20
2022-09-14T10:44:24.071Z,3.53
2022-09-14T10:46:47.707Z,3.30
2022-09-14T10:49:19.705Z,2.73
2022-09-14T10:51:47.174Z,4.27
2022-09-14T10:54:15.458Z,2.87
2022-09-14T10:56:42.941Z,4.80
2022-09-14T10:59:16.360Z,4.87
2022-09-14T11:01:44.533Z,3.60
2022-09-14T11:04:18.259Z,2.60
2022-09-14T11:06:44.949Z,3.17
2022-09-14T11:09:11.878Z,3.70
2022-09-14T11:11:39.088Z,2.90
2022-09-14T11:14:08.168Z,4.13
2022-09-14T11:16:36.062Z,4.60
2022-09-14T11:19:02.554Z,3.80
2022-09-14T11:21:27.760Z,2.57
2022-09-14T11:23:53.519Z,2.97
2022-09-14T11:26:16.132Z,3.53
2022-09-14T11:28:41.153Z,3.90
2022-09-14T11:31:04.271Z,2.47
2022-09-14T11:33:31.187Z,3.17
2022-09-14T11:35:55.985Z,3.23
2022-09-14T11:38:19.070Z,3.27
2022-09-14T11:40:44.311Z,3.27
2022-09-14T11:43:11.392Z,4.17
2022-09-14T11:45:36.637Z,3.00
2022-09-14T11:48:00.417Z,4.40
2022-09-14T11:50:23.554Z,7.10
2022-09-14T11:52:44.581Z,2.83
2022-09-14T11:55:10.257Z,3.53
2022-09-14T11:57:32.538Z,3.03
2022-09-14T11:59:54.142Z,2.57
2022-09-14T12:02:35.548Z,2.70
2022-09-14T12:05:26.740Z,4.30
2022-09-14T12:08:02.108Z,5.63
2022-09-14T12:10:23.473Z,3.70
2022-09-14T12:12:45.093Z,3.07
2022-09-14T12:15:17.659Z,2.50
2022-09-14T12:17:40.591Z,2.60
2022-09-14T12:20:30.892Z,3.97
2022-09-14T12:23:04.824Z,5.13
2022-09-14T12:25:25.885Z,6.00
2022-09-14T12:27:48.866Z,2.67
2022-09-14T12:30:24.927Z,4.23
2022-09-14T12:32:46.372Z,2.80
2022-09-14T12:35:26.572Z,2.57
2022-09-14T12:37:47.706Z,6.90
2022-09-14T12:40:24.406Z,5.33
2022-09-14T12:42:45.849Z,5.73
2022-09-14T12:45:22.014Z,2.73
2022-09-14T12:47:52.507Z,3.00
2022-09-14T12:50:17.242Z,4.30
2022-09-14T12:52:41.678Z,3.97
2022-09-14T12:55:08.175Z,3.40
2022-09-14T12:57:35.005Z,3.67
2022-09-14T13:00:00.326Z,2.93
2022-09-14T13:02:51.807Z,5.27
2022-09-14T13:05:15.135Z,4.23
2022-09-14T13:07:37.518Z,4.83
2022-09-14T13:09:59.500Z,5.73
2022-09-14T13:12:23.618Z,5.03
2022-09-14T13:14:48.762Z,4.20
2022-09-14T13:17:13.066Z,6.90
2022-09-14T13:19:35.177Z,6.40
2022-09-14T13:21:56.739Z,7.40
2022-09-14T13:24:26.131Z,4.50
2022-09-14T13:26:47.312Z,4.23
2022-09-14T13:29:08.763Z,6.43
2022-09-14T13:31:32.805Z,3.57
2022-09-14T13:33:55.389Z,5.27
2022-09-14T13:36:18.833Z,3.17
2022-09-14T13:38:39.916Z,4.10
2022-09-14T13:41:06.465Z,4.57
2022-09-14T13:43:27.461Z,5.27
2022-09-14T13:45:49.615Z,4.13
2022-09-14T13:48:14.575Z,2.80
2022-09-14T13:50:35.940Z,2.70
2022-09-14T13:53:02.255Z,3.93
2022-09-14T13:55:26.188Z,2.53
2022-09-14T13:58:08.068Z,2.60
2022-09-14T14:00:29.188Z,2.87
2022-09-14T14:02:51.324Z,4.63
2022-09-14T14:05:22.554Z,2.60
2022-09-14T14:07:46.484Z,2.93
2022-09-14T14:10:09.044Z,2.53
2022-09-14T14:12:31.172Z,2.60
2022-09-14T14:14:56.672Z,3.00
2022-09-14T14:17:25.124Z,2.67
2022-09-14T14:19:46.096Z,2.30
2022-09-14T14:22:18.746Z,2.90
2022-09-14T14:25:02.066Z,3.20
2022-09-14T14:27:26.622Z,2.40
2022-09-14T14:29:47.949Z,2.40
2022-09-14T14:32:09.723Z,2.57
2022-09-14T14:34:30.933Z,3.93
2022-09-14T14:36:52.089Z,2.27
2022-09-14T14:39:14.657Z,3.20
2022-09-14T14:41:35.903Z,2.30
2022-09-14T14:43:57.011Z,2.10
2022-09-14T14:46:18.415Z,2.20
2022-09-14T14:48:39.812Z,2.30
2022-09-14T14:51:01.161Z,3.10
2022-09-14T14:53:22.302Z,2.40
2022-09-14T14:55:45.102Z,2.60
2022-09-14T14:58:09.734Z,2.10
2022-09-14T15:00:32.252Z,2.50
2022-09-14T15:02:53.351Z,2.10
2022-09-14T15:05:14.265Z,2.83
2022-09-14T15:07:37.749Z,2.23
2022-09-14T15:09:59.323Z,3.00
2022-09-14T15:12:21.580Z,3.00
2022-09-14T15:14:42.726Z,4.93
2022-09-14T15:17:04.898Z,3.50
2022-09-14T15:19:26.174Z,2.30
2022-09-14T15:21:47.472Z,1.80
2022-09-14T15:24:09.246Z,1.83
2022-09-14T15:26:30.229Z,1.70
2022-09-14T15:28:52.827Z,1.67
2022-09-14T15:31:14.136Z,2.03
2022-09-14T15:33:35.309Z,2.17
2022-09-14T15:35:57.365Z,1.80
2022-09-14T15:38:18.416Z,1.93
2022-09-14T15:40:39.786Z,1.50
2022-09-14T15:43:00.976Z,1.50
2022-09-14T15:45:23.728Z,1.23
2022-09-14T15:47:44.809Z,1.10
2022-09-14T15:50:06.658Z,1.27
2022-09-14T15:52:27.844Z,1.20
2022-09-14T15:54:49.221Z,1.10
2022-09-14T15:57:12.693Z,1.10
2022-09-14T15:59:34.764Z,1.10
2022-09-14T16:01:57.487Z,1.27
2022-09-14T16:04:19.233Z,1.20
2022-09-14T16:06:40.324Z,1.20
2022-09-14T16:09:02.017Z,1.40
2022-09-14T16:11:23.180Z,1.47
2022-09-14T16:13:44.263Z,1.90
2022-09-14T16:16:06.916Z,1.30
2022-09-14T16:18:30.807Z,1.67
2022-09-14T16:20:51.656Z,1.10
2022-09-14T16:23:12.867Z,2.30
2022-09-14T16:25:40.474Z,1.27
2022-09-14T16:28:02.000Z,2.10
2022-09-14T16:30:23.199Z,1.23
2022-09-14T16:32:44.665Z,1.50
2022-09-14T16:35:08.414Z,1.60
2022-09-14T16:37:29.574Z,2.10
2022-09-14T16:39:51.693Z,1.40
2022-09-14T16:42:13.143Z,1.47
2022-09-14T16:44:34.365Z,3.43
2022-09-14T16:46:57.537Z,1.87
2022-09-14T16:49:21.261Z,3.30
2022-09-14T16:51:46.253Z,1.50
2022-09-14T16:54:07.485Z,2.77
2022-09-14T16:56:30.856Z,2.13
2022-09-14T16:58:52.789Z,3.00
2022-09-14T17:01:15.483Z,2.80
2022-09-14T17:03:36.826Z,2.07
2022-09-14T17:06:01.105Z,1.30
2022-09-14T17:08:23.798Z,3.30
2022-09-14T17:10:47.045Z,1.80
2022-09-14T17:13:08.175Z,2.63
2022-09-14T17:15:29.444Z,1.67
2022-09-14T17:17:50.484Z,1.40
2022-09-14T17:20:11.589Z,5.53
2022-09-14T17:22:33.277Z,1.97
2022-09-14T17:24:55.841Z,6.13
2022-09-14T17:27:18.757Z,2.07
2022-09-14T17:29:40.722Z,4.03
2022-09-14T17:32:02.018Z,1.63
2022-09-14T17:34:23.803Z,3.17
2022-09-14T17:36:45.425Z,4.03
2022-09-14T17:39:11.570Z,1.97
2022-09-14T17:41:37.506Z,1.40
2022-09-14T17:43:59.607Z,3.23
2022-09-14T17:46:21.601Z,1.60
2022-09-14T17:48:43.229Z,2.63
2022-09-14T17:51:08.349Z,1.77
2022-09-14T17:53:29.806Z,1.80
2022-09-14T17:55:50.744Z,2.13
2022-09-14T17:58:17.630Z,1.93
2022-09-14T18:00:40.786Z,1.63
2022-09-14T18:03:02.134Z,2.20
2022-09-14T18:05:23.361Z,1.73
2022-09-14T18:07:44.734Z,2.43
2022-09-14T18:10:06.240Z,1.90
2022-09-14T18:12:27.623Z,1.63
2022-09-14T18:14:50.233Z,3.33
2022-09-14T18:17:12.621Z,2.20
2022-09-14T18:19:33.714Z,1.70
2022-09-14T18:21:54.880Z,1.60
2022-09-14T18:24:16.087Z,1.70
2022-09-14T18:26:38.384Z,2.07
2022-09-14T18:28:59.548Z,1.80
2022-09-14T18:31:22.129Z,2.03
2022-09-14T18:33:47.426Z,1.70
2022-09-14T18:36:08.993Z,2.33
2022-09-14T18:38:30.336Z,3.27
2022-09-14T18:40:51.204Z,1.73
2022-09-14T18:43:12.343Z,1.80
2022-09-14T18:45:35.298Z,2.23
2022-09-14T18:47:58.124Z,2.17
2022-09-14T18:50:20.052Z,1.83
2022-09-14T18:52:41.238Z,2.43
2022-09-14T18:55:02.696Z,1.63
2022-09-14T18:57:24.125Z,2.43
2022-09-14T18:59:45.384Z,3.20
2022-09-14T19:02:06.829Z,1.80
2022-09-14T19:04:29.473Z,2.50
2022-09-14T19:06:50.684Z,2.23
2022-09-14T19:09:11.835Z,2.70
2022-09-14T19:11:33.288Z,3.37
2022-09-14T19:13:56.432Z,2.63
2022-09-14T19:16:18.915Z,2.97
2022-09-14T19:18:40.204Z,3.07
2022-09-14T19:21:07.113Z,2.53
2022-09-14T19:23:28.264Z,2.63
2022-09-14T19:25:49.479Z,4.23
2022-09-14T19:28:10.674Z,2.37
2022-09-14T19:30:32.266Z,1.87
2022-09-14T19:32:53.207Z,2.13
2022-09-14T19:35:14.428Z,2.97
2022-09-14T19:37:37.281Z,2.00
2022-09-14T19:40:00.802Z,1.90
2022-09-14T19:42:24.419Z,2.20
2022-09-14T19:44:45.604Z,1.93
2022-09-14T19:47:07.222Z,3.20
2022-09-14T19:49:28.684Z,4.30
2022-09-14T19:51:49.960Z,1.87
2022-09-14T19:54:12.479Z,2.50
2022-09-14T19:56:35.264Z,2.43
2022-09-14T19:58:58.103Z,1.70
2022-09-14T20:01:20.298Z,4.07
2022-09-14T20:03:41.787Z,2.97
2022-09-14T20:06:03.636Z,2.00
2022-09-14T20:08:25.558Z,2.10
2022-09-14T20:10:47.846Z,2.63
2022-09-14T20:13:09.499Z,3.00
2022-09-14T20:15:31.271Z,2.97
2022-09-14T20:17:54.544Z,3.47
2022-09-14T20:20:17.301Z,2.73
2022-09-14T20:22:38.496Z,2.50
2022-09-14T20:24:59.690Z,2.53
2022-09-14T20:27:22.457Z,2.33
2022-09-14T20:29:43.532Z,2.30
2022-09-14T20:32:05.069Z,2.37
2022-09-14T20:34:26.136Z,2.67
2022-09-14T20:36:47.369Z,2.20
2022-09-14T20:39:08.460Z,2.63
2022-09-14T20:41:30.201Z,2.47
2022-09-14T20:43:53.063Z,2.57
2022-09-14T20:46:15.217Z,4.20
2022-09-14T20:48:36.497Z,1.80
2022-09-14T20:50:58.560Z,2.30
2022-09-14T20:53:19.575Z,3.03
2022-09-14T20:55:40.926Z,2.20
2022-09-14T20:58:02.118Z,2.10
2022-09-14T21:00:24.684Z,2.40
2022-09-14T21:02:45.910Z,4.27
2022-09-14T21:05:07.675Z,1.80
2022-09-14T21:07:28.905Z,2.03
2022-09-14T21:09:49.978Z,3.87
2022-09-14T21:12:13.967Z,2.20
2022-09-14T21:14:34.964Z,2.00
2022-09-14T21:16:58.493Z,3.87
2022-09-14T21:19:20.603Z,2.57
2022-09-14T21:21:42.017Z,2.13
2022-09-14T21:24:05.522Z,2.13
2022-09-14T21:26:27.169Z,2.00
2022-09-14T21:28:48.586Z,2.50
2022-09-14T21:31:10.682Z,5.33
2022-09-14T21:33:34.298Z,3.60
2022-09-14T21:35:55.220Z,2.30
2022-09-14T21:38:16.581Z,2.00
2022-09-14T21:40:38.032Z,2.73
2022-09-14T21:42:59.300Z,2.30
2022-09-14T21:45:20.622Z,2.83
2022-09-14T21:47:42.098Z,2.37
2022-09-14T21:50:05.205Z,7.67
2022-09-14T21:52:26.602Z,2.43
2022-09-14T21:54:47.920Z,2.10
2022-09-14T21:57:09.185Z,4.73
2022-09-14T21:59:30.340Z,2.67
2022-09-14T22:01:51.334Z,2.97
2022-09-14T22:04:14.404Z,2.30
2022-09-14T22:06:36.665Z,2.50
2022-09-14T22:08:59.777Z,2.80
2022-09-14T22:11:23.276Z,2.97
2022-09-14T22:13:44.796Z,3.33
2022-09-14T22:16:09.432Z,3.40
2022-09-14T22:18:30.847Z,4.67
2022-09-14T22:20:56.412Z,4.13
2022-09-14T22:23:18.569Z,2.30
2022-09-14T22:25:40.560Z,2.50
2022-09-14T22:28:01.977Z,2.77
2022-09-14T22:30:23.255Z,2.93
2022-09-14T22:32:44.360Z,2.30
2022-09-14T22:35:05.769Z,2.43
2022-09-14T22:37:27.020Z,2.87
2022-09-14T22:39:49.804Z,2.53
2022-09-14T22:42:10.947Z,2.60
2022-09-14T22:44:32.641Z,3.27
2022-09-14T22:46:53.709Z,2.60
2022-09-14T22:49:14.865Z,3.40
2022-09-14T22:51:36.128Z,3.73
2022-09-14T22:53:57.672Z,3.30
2022-09-14T22:56:22.577Z,2.40
2022-09-14T22:58:43.549Z,4.50
2022-09-14T23:01:08.359Z,2.87
2022-09-14T23:03:29.593Z,9.73
2022-09-14T23:05:51.637Z,5.63
2022-09-14T23:08:12.667Z,4.20
2022-09-14T23:10:36.778Z,6.23
2022-09-14T23:13:00.230Z,5.63
2022-09-14T23:15:21.419Z,2.73
2022-09-14T23:17:42.565Z,2.70
2022-09-14T23:20:03.948Z,2.97
2022-09-14T23:22:25.151Z,4.60
2022-09-14T23:24:46.408Z,3.10
2022-09-14T23:27:07.273Z,4.80
2022-09-14T23:29:29.933Z,6.80
2022-09-14T23:31:51.295Z,3.90
2022-09-14T23:34:12.610Z,5.07
2022-09-14T23:36:33.698Z,3.73
2022-09-14T23:38:55.268Z,3.50
2022-09-14T23:41:16.826Z,2.77
2022-09-14T23:43:37.874Z,2.90
2022-09-14T23:46:00.580Z,3.83
2022-09-14T23:48:22.984Z,3.23
2022-09-14T23:50:44.612Z,3.83
2022-09-14T23:53:05.787Z,3.37
2022-09-14T23:55:27.043Z,2.90
2022-09-14T23:57:48.195Z,3.17
